createdAt,value
2017-10-20T00:01:41.453Z,11.20
2017-10-20T00:04:09.387Z,10.10
2017-10-20T00:06:36.937Z,8.37
2017-10-20T00:09:04.486Z,10.30
2017-10-20T00:11:32.040Z,13.07
2017-10-20T00:13:59.992Z,10.50
2017-10-20T00:16:27.538Z,10.30
2017-10-20T00:18:55.098Z,10.67
2017-10-20T00:21:22.633Z,10.67
2017-10-20T00:23:50.583Z,21.90
2017-10-20T00:26:18.108Z,8.07
2017-10-20T00:28:45.663Z,11.60
2017-10-20T00:31:13.195Z,8.20
2017-10-20T00:33:40.786Z,9.80
2017-10-20T00:36:08.358Z,10.03
2017-10-20T00:38:36.303Z,7.87
2017-10-20T00:41:03.870Z,7.47
2017-10-20T00:43:31.428Z,10.73
2017-10-20T00:45:58.985Z,10.83
2017-10-20T00:48:26.532Z,8.57
2017-10-20T00:50:54.076Z,10.90
2017-10-20T00:53:21.613Z,11.60
2017-10-20T00:55:49.181Z,8.07
2017-10-20T00:58:16.700Z,9.83
2017-10-20T01:00:44.258Z,10.90
2017-10-20T01:03:11.817Z,7.50
2017-10-20T01:05:39.359Z,10.77
2017-10-20T01:08:06.905Z,8.60
2017-10-20T01:10:34.863Z,8.23
2017-10-20T01:13:02.442Z,10.87
2017-10-20T01:15:29.988Z,9.80
2017-10-20T01:17:57.561Z,8.40
2017-10-20T01:20:25.094Z,8.60
2017-10-20T01:22:52.638Z,12.23
2017-10-20T01:25:20.190Z,10.10
2017-10-20T01:27:47.716Z,10.63
2017-10-20T01:30:15.265Z,8.97
2017-10-20T01:32:43.194Z,8.00
2017-10-20T01:35:10.762Z,13.70
2017-10-20T01:37:38.293Z,7.63
2017-10-20T01:40:06.273Z,15.33
2017-10-20T01:42:34.206Z,9.90
2017-10-20T01:45:01.742Z,8.53
2017-10-20T01:47:29.297Z,7.03
2017-10-20T01:49:56.842Z,9.70
2017-10-20T01:52:24.402Z,8.00
2017-10-20T01:54:51.936Z,9.40
2017-10-20T01:57:19.493Z,8.70
2017-10-20T01:59:47.047Z,11.57
2017-10-20T02:02:14.609Z,10.90
2017-10-20T02:04:42.155Z,8.17
2017-10-20T02:07:09.698Z,12.80
2017-10-20T02:09:37.252Z,8.90
2017-10-20T02:12:04.777Z,11.43
2017-10-20T02:14:32.323Z,9.10
2017-10-20T02:16:59.853Z,9.13
2017-10-20T02:19:27.797Z,8.37
2017-10-20T02:21:55.338Z,10.50
2017-10-20T02:24:22.919Z,9.20
2017-10-20T02:26:50.452Z,12.60
2017-10-20T02:29:18.381Z,13.13
2017-10-20T02:31:45.932Z,8.97
2017-10-20T02:34:13.502Z,10.30
2017-10-20T02:36:41.059Z,8.20
2017-10-20T02:39:08.604Z,10.70
2017-10-20T02:41:36.576Z,11.00
2017-10-20T02:44:04.117Z,7.90
2017-10-20T02:46:31.663Z,11.83
2017-10-20T02:48:59.197Z,8.40
2017-10-20T02:51:26.742Z,9.40
2017-10-20T02:53:54.324Z,9.87
2017-10-20T02:56:21.869Z,10.03
2017-10-20T02:58:49.417Z,7.83
2017-10-20T03:01:16.953Z,14.87
2017-10-20T03:03:44.509Z,9.80
2017-10-20T03:06:12.041Z,9.37
2017-10-20T03:08:39.615Z,12.40
2017-10-20T03:11:07.132Z,8.37
2017-10-20T03:13:34.672Z,10.70
2017-10-20T03:16:02.226Z,8.80
2017-10-20T03:18:29.758Z,9.20
2017-10-20T03:20:57.310Z,10.37
2017-10-20T03:23:24.855Z,6.67
2017-10-20T03:25:52.427Z,11.57
2017-10-20T03:28:19.949Z,8.80
2017-10-20T03:30:47.863Z,8.13
2017-10-20T03:33:15.411Z,7.50
2017-10-20T03:35:43.343Z,10.77
2017-10-20T03:38:10.883Z,8.53
2017-10-20T03:40:38.436Z,7.30
2017-10-20T03:43:05.997Z,6.03
2017-10-20T03:45:33.523Z,9.77
2017-10-20T03:48:01.079Z,8.60
2017-10-20T03:50:28.612Z,7.67
2017-10-20T03:52:56.552Z,14.30
2017-10-20T03:55:24.101Z,10.40
2017-10-20T03:57:51.623Z,8.93
2017-10-20T04:00:19.173Z,9.33
2017-10-20T04:02:46.712Z,8.90
2017-10-20T04:05:14.250Z,9.53
2017-10-20T04:07:42.169Z,8.40
2017-10-20T04:10:09.766Z,9.30
2017-10-20T04:12:37.384Z,6.90
2017-10-20T04:15:05.313Z,8.90
2017-10-20T04:17:32.870Z,16.50
2017-10-20T04:20:00.414Z,8.87
2017-10-20T04:22:27.958Z,9.20
2017-10-20T04:24:55.499Z,11.53
2017-10-20T04:27:23.138Z,11.00
2017-10-20T04:29:50.669Z,11.40
2017-10-20T04:32:18.193Z,7.40
2017-10-20T04:34:45.766Z,9.90
2017-10-20T04:37:13.308Z,8.97
2017-10-20T04:39:41.310Z,7.93
2017-10-20T04:42:08.835Z,11.00
2017-10-20T04:44:36.373Z,10.97
2017-10-20T04:47:03.921Z,11.03
2017-10-20T04:49:31.469Z,13.80
2017-10-20T04:51:59.414Z,10.00
2017-10-20T04:54:26.965Z,12.10
2017-10-20T04:56:54.517Z,17.90
2017-10-20T04:59:22.037Z,12.10
2017-10-20T05:01:49.569Z,12.20
2017-10-20T05:04:17.123Z,13.40
2017-10-20T05:06:44.691Z,12.87
2017-10-20T05:09:12.236Z,10.70
2017-10-20T05:11:39.764Z,15.20
2017-10-20T05:14:07.335Z,11.97
2017-10-20T05:16:34.894Z,12.00
2017-10-20T05:19:02.440Z,14.43
2017-10-20T05:21:30.037Z,15.30
2017-10-20T05:23:57.568Z,13.10
2017-10-20T05:26:25.130Z,15.47
2017-10-20T05:28:52.667Z,14.30
2017-10-20T05:31:20.217Z,14.00
2017-10-20T05:33:47.774Z,13.23
2017-10-20T05:36:15.313Z,13.93
2017-10-20T05:38:42.888Z,13.07
2017-10-20T05:41:10.432Z,14.03
2017-10-20T05:43:37.965Z,15.47
2017-10-20T05:46:05.515Z,13.27
2017-10-20T05:48:33.058Z,15.70
2017-10-20T05:51:01.437Z,15.53
2017-10-20T05:53:28.981Z,16.20
2017-10-20T05:55:56.560Z,18.70
2017-10-20T05:58:24.096Z,18.97
2017-10-20T06:00:52.023Z,25.37
2017-10-20T06:03:19.583Z,22.60
2017-10-20T06:05:47.123Z,24.67
2017-10-20T06:08:15.068Z,18.57
2017-10-20T06:10:42.605Z,21.00
2017-10-20T06:13:10.180Z,32.23
2017-10-20T06:15:37.718Z,25.07
2017-10-20T06:18:05.277Z,21.90
2017-10-20T06:20:32.850Z,24.20
2017-10-20T06:23:00.401Z,27.10
2017-10-20T06:25:28.516Z,26.47
2017-10-20T06:27:56.433Z,24.70
2017-10-20T06:30:24.000Z,28.20
2017-10-20T06:32:51.552Z,25.70
2017-10-20T06:35:19.480Z,25.00
2017-10-20T06:37:47.046Z,26.73
2017-10-20T06:40:14.594Z,23.87
2017-10-20T06:42:42.136Z,26.00
2017-10-20T06:45:10.066Z,20.47
2017-10-20T06:47:37.637Z,21.07
2017-10-20T06:50:05.193Z,20.47
2017-10-20T06:52:32.749Z,21.87
2017-10-20T06:55:00.315Z,22.37
2017-10-20T06:57:27.860Z,20.33
2017-10-20T06:59:55.428Z,21.23
2017-10-20T07:02:22.983Z,19.40
2017-10-20T07:04:50.569Z,16.90
2017-10-20T07:07:18.109Z,19.97
2017-10-20T07:09:45.678Z,20.47
2017-10-20T07:12:13.244Z,19.47
2017-10-20T07:14:40.786Z,19.07
2017-10-20T07:17:08.756Z,21.97
2017-10-20T07:22:34.402Z,20.90
2017-10-20T07:25:02.012Z,17.10
2017-10-20T07:27:29.602Z,19.73
2017-10-20T07:29:57.174Z,21.53
2017-10-20T07:32:24.708Z,20.20
2017-10-20T07:34:52.290Z,24.30
2017-10-20T07:37:19.855Z,17.33
2017-10-20T07:39:47.816Z,16.93
2017-10-20T07:42:15.358Z,16.33
2017-10-20T07:44:42.908Z,16.23
2017-10-20T07:47:10.459Z,15.53
2017-10-20T07:49:38.420Z,16.50
2017-10-20T07:52:05.971Z,14.40
2017-10-20T07:54:33.526Z,14.63
2017-10-20T07:57:01.085Z,14.23
2017-10-20T07:59:28.616Z,14.60
2017-10-20T08:01:56.717Z,20.83
2017-10-20T08:04:24.268Z,13.70
2017-10-20T08:06:52.205Z,14.97
2017-10-20T08:09:19.757Z,15.40
2017-10-20T08:11:47.342Z,13.77
2017-10-20T08:14:14.884Z,14.00
2017-10-20T08:16:42.412Z,12.13
2017-10-20T08:19:09.959Z,15.23
2017-10-20T08:21:37.512Z,13.93
2017-10-20T08:24:05.072Z,14.67
2017-10-20T08:26:32.660Z,13.80
2017-10-20T08:29:00.226Z,12.43
2017-10-20T08:31:27.749Z,13.70
2017-10-20T08:33:55.337Z,15.27
2017-10-20T08:36:22.897Z,15.40
2017-10-20T08:38:50.461Z,13.93
2017-10-20T08:41:18.020Z,13.50
2017-10-20T08:43:45.551Z,12.93
2017-10-20T08:46:13.108Z,12.90
2017-10-20T08:48:41.050Z,13.60
2017-10-20T08:51:08.604Z,13.23
2017-10-20T08:53:36.134Z,11.70
2017-10-20T08:56:03.716Z,12.20
2017-10-20T08:58:31.258Z,10.80
2017-10-20T09:00:58.802Z,11.87
2017-10-20T09:03:26.368Z,12.53
2017-10-20T09:05:53.905Z,10.47
2017-10-20T09:08:21.455Z,11.77
2017-10-20T09:10:49.386Z,10.57
2017-10-20T09:13:16.944Z,11.67
2017-10-20T09:15:44.526Z,12.10
2017-10-20T09:18:12.078Z,11.93
2017-10-20T09:20:39.658Z,12.40
2017-10-20T09:23:07.200Z,12.40
2017-10-20T09:25:35.153Z,16.70
2017-10-20T09:28:02.695Z,12.27
2017-10-20T09:30:30.276Z,13.83
2017-10-20T09:32:57.824Z,14.83
2017-10-20T09:35:25.370Z,18.87
2017-10-20T09:37:52.928Z,14.63
2017-10-20T09:40:20.488Z,13.20
2017-10-20T09:42:48.038Z,14.97
2017-10-20T09:45:15.906Z,14.87
2017-10-20T09:47:43.659Z,17.00
2017-10-20T09:50:11.218Z,17.97
2017-10-20T09:52:38.810Z,20.57
2017-10-20T09:55:06.345Z,15.37
2017-10-20T09:57:34.273Z,13.90
2017-10-20T10:00:01.816Z,9.90
2017-10-20T10:02:29.353Z,8.63
2017-10-20T10:04:56.923Z,6.30
2017-10-20T10:07:24.446Z,4.33
2017-10-20T10:09:52.047Z,5.53
2017-10-20T10:12:19.580Z,3.37
2017-10-20T10:14:47.157Z,6.57
2017-10-20T10:17:14.688Z,3.57
2017-10-20T10:19:42.214Z,5.30
2017-10-20T10:22:09.777Z,5.73
2017-10-20T10:24:37.331Z,3.97
2017-10-20T10:27:04.890Z,3.43
2017-10-20T10:29:32.453Z,4.20
2017-10-20T10:32:00.006Z,3.50
2017-10-20T10:34:27.534Z,2.63
2017-10-20T10:36:55.078Z,2.50
2017-10-20T10:39:23.001Z,2.70
2017-10-20T10:41:50.567Z,3.60
2017-10-20T10:44:18.095Z,1.30
2017-10-20T10:46:45.703Z,1.93
2017-10-20T10:49:13.230Z,3.87
2017-10-20T10:51:40.788Z,2.27
2017-10-20T10:54:08.317Z,1.70
2017-10-20T10:56:35.872Z,1.80
2017-10-20T10:59:03.406Z,2.40
2017-10-20T11:01:31.107Z,3.10
2017-10-20T11:03:59.024Z,3.23
2017-10-20T11:06:38.484Z,1.73
2017-10-20T11:09:17.735Z,1.83
2017-10-20T11:11:57.208Z,1.70
2017-10-20T11:14:24.747Z,1.57
2017-10-20T11:16:52.267Z,2.00
2017-10-20T11:19:20.217Z,3.97
2017-10-20T11:21:47.752Z,1.87
2017-10-20T11:24:15.304Z,1.63
2017-10-20T11:26:43.230Z,2.27
2017-10-20T11:29:10.779Z,1.33
2017-10-20T11:31:38.308Z,1.20
2017-10-20T11:34:05.858Z,1.93
2017-10-20T11:36:33.390Z,2.53
2017-10-20T11:39:00.947Z,2.47
2017-10-20T11:41:28.532Z,1.83
2017-10-20T11:43:56.109Z,0.60
2017-10-20T11:46:23.646Z,5.40
2017-10-20T11:48:51.290Z,3.40
2017-10-20T11:51:18.831Z,0.90
2017-10-20T11:53:46.388Z,2.70
2017-10-20T11:56:13.916Z,3.43
2017-10-20T11:58:41.883Z,3.23
2017-10-20T12:01:09.427Z,1.67
2017-10-20T12:03:37.022Z,2.50
2017-10-20T12:06:04.564Z,2.07
2017-10-20T12:08:32.112Z,2.00
2017-10-20T12:10:59.671Z,1.70
2017-10-20T12:13:27.610Z,3.03
2017-10-20T12:15:55.192Z,3.43
2017-10-20T12:18:22.740Z,1.50
2017-10-20T12:20:50.304Z,1.93
2017-10-20T12:23:17.853Z,2.57
2017-10-20T12:25:45.408Z,1.70
2017-10-20T12:28:12.939Z,1.80
2017-10-20T12:30:40.495Z,3.07
2017-10-20T12:33:08.023Z,2.53
2017-10-20T12:35:35.955Z,3.13
2017-10-20T12:38:03.490Z,1.47
2017-10-20T12:40:31.433Z,0.97
2017-10-20T12:42:58.993Z,1.20
2017-10-20T12:45:26.539Z,2.30
2017-10-20T12:47:54.070Z,4.00
2017-10-20T12:50:22.026Z,1.97
2017-10-20T12:52:49.553Z,3.93
2017-10-20T12:55:17.126Z,6.33
2017-10-20T12:57:44.684Z,0.90
2017-10-20T13:00:12.213Z,2.10
2017-10-20T13:02:39.774Z,3.03
2017-10-20T13:05:07.309Z,2.80
2017-10-20T13:07:34.869Z,1.10
2017-10-20T13:10:02.789Z,1.47
2017-10-20T13:12:30.341Z,7.03
2017-10-20T13:14:57.874Z,2.90
2017-10-20T13:17:25.823Z,1.60
2017-10-20T13:19:53.356Z,2.00
2017-10-20T13:22:20.909Z,3.67
2017-10-20T13:24:48.845Z,1.90
2017-10-20T13:27:16.400Z,2.93
2017-10-20T13:29:43.941Z,3.73
2017-10-20T13:32:11.485Z,3.53
2017-10-20T13:34:39.005Z,3.33
2017-10-20T13:37:06.553Z,2.63
2017-10-20T13:39:34.087Z,1.10
2017-10-20T13:42:01.648Z,4.83
2017-10-20T13:44:29.180Z,2.10
2017-10-20T13:46:56.722Z,3.53
2017-10-20T13:49:24.345Z,3.67
2017-10-20T13:51:51.915Z,3.70
2017-10-20T13:54:19.534Z,3.97
2017-10-20T13:56:47.062Z,9.90
2017-10-20T13:59:14.640Z,4.60
2017-10-20T14:01:42.170Z,2.10
2017-10-20T14:04:09.759Z,2.50
2017-10-20T14:06:37.302Z,2.33
2017-10-20T14:09:04.866Z,3.50
2017-10-20T14:11:32.396Z,4.20
2017-10-20T14:13:59.967Z,4.57
2017-10-20T14:16:27.498Z,5.17
2017-10-20T14:18:55.043Z,5.93
2017-10-20T14:21:22.579Z,3.30
2017-10-20T14:23:50.118Z,4.23
2017-10-20T14:26:17.652Z,5.80
2017-10-20T14:28:45.232Z,3.87
2017-10-20T14:31:12.772Z,5.53
2017-10-20T14:33:40.300Z,5.60
2017-10-20T14:36:08.255Z,4.63
2017-10-20T14:38:35.794Z,3.10
2017-10-20T14:41:03.344Z,4.03
2017-10-20T14:43:30.885Z,3.27
2017-10-20T14:45:58.829Z,2.40
2017-10-20T14:48:26.363Z,4.00
2017-10-20T14:50:53.933Z,2.90
2017-10-20T14:53:21.468Z,3.57
2017-10-20T14:55:49.043Z,2.67
2017-10-20T14:58:17.008Z,5.37
2017-10-20T15:00:44.616Z,5.70
2017-10-20T15:03:12.553Z,4.87
2017-10-20T15:05:40.092Z,3.23
2017-10-20T15:08:07.622Z,3.20
2017-10-20T15:10:35.166Z,2.20
2017-10-20T15:13:02.722Z,3.70
2017-10-20T15:15:30.256Z,2.80
2017-10-20T15:17:58.201Z,3.53
2017-10-20T15:20:25.727Z,3.87
2017-10-20T15:22:53.278Z,3.73
2017-10-20T15:25:21.201Z,5.00
2017-10-20T15:27:48.748Z,5.87
2017-10-20T15:30:16.265Z,3.70
2017-10-20T15:32:43.829Z,5.97
2017-10-20T15:35:11.359Z,7.23
2017-10-20T15:37:38.904Z,2.90
2017-10-20T15:40:06.841Z,3.17
2017-10-20T15:42:34.403Z,5.40
2017-10-20T15:45:02.021Z,3.70
2017-10-20T15:47:29.604Z,6.33
2017-10-20T15:49:57.122Z,6.10
2017-10-20T15:52:24.671Z,5.60
2017-10-20T15:54:52.284Z,5.77
2017-10-20T15:57:19.858Z,3.60
2017-10-20T15:59:47.403Z,2.30
2017-10-20T16:02:14.981Z,3.37
2017-10-20T16:04:42.513Z,9.50
2017-10-20T16:07:10.436Z,5.33
2017-10-20T16:09:38.037Z,2.83
2017-10-20T16:12:05.765Z,4.23
2017-10-20T16:14:33.324Z,3.27
2017-10-20T16:17:00.876Z,9.87
2017-10-20T16:19:28.442Z,9.17
2017-10-20T16:21:56.388Z,5.90
2017-10-20T16:24:23.967Z,8.10
2017-10-20T16:26:51.508Z,2.80
2017-10-20T16:29:19.052Z,7.40
2017-10-20T16:31:46.617Z,4.10
2017-10-20T16:34:14.170Z,4.93
2017-10-20T16:36:41.759Z,6.10
2017-10-20T16:39:09.712Z,4.80
2017-10-20T16:41:37.365Z,5.37
2017-10-20T16:44:05.277Z,5.90
2017-10-20T16:46:32.888Z,3.50
2017-10-20T16:49:00.435Z,4.33
2017-10-20T16:51:28.365Z,6.40
2017-10-20T16:53:55.940Z,2.50
2017-10-20T16:56:23.490Z,6.80
2017-10-20T16:58:51.045Z,3.07
2017-10-20T17:01:18.605Z,4.53
2017-10-20T17:03:46.237Z,6.10
2017-10-20T17:06:13.784Z,7.67
2017-10-20T17:08:41.321Z,5.50
2017-10-20T17:11:08.958Z,6.47
2017-10-20T17:13:36.541Z,5.80
2017-10-20T17:16:04.097Z,3.83
2017-10-20T17:18:31.726Z,6.70
2017-10-20T17:20:59.310Z,4.57
2017-10-20T17:23:26.874Z,2.43
2017-10-20T17:25:54.425Z,5.97
2017-10-20T17:28:21.961Z,6.37
2017-10-20T17:30:49.518Z,8.50
2017-10-20T17:33:17.079Z,9.50
2017-10-20T17:35:44.671Z,10.97
2017-10-20T17:38:12.285Z,7.63
2017-10-20T17:40:40.256Z,7.60
2017-10-20T17:43:07.806Z,11.17
2017-10-20T17:45:35.368Z,4.60
2017-10-20T17:48:02.906Z,8.33
2017-10-20T17:50:30.426Z,6.00
2017-10-20T17:52:57.964Z,9.17
2017-10-20T17:55:25.552Z,5.07
2017-10-20T17:57:53.118Z,13.60
2017-10-20T18:00:20.654Z,5.80
2017-10-20T18:02:48.230Z,9.53
2017-10-20T18:05:16.159Z,8.90
2017-10-20T18:07:43.708Z,7.07
2017-10-20T18:10:11.239Z,7.93
2017-10-20T18:12:39.187Z,9.23
2017-10-20T18:15:06.705Z,8.40
2017-10-20T18:17:34.658Z,8.50
2017-10-20T18:20:02.196Z,6.40
2017-10-20T18:22:29.731Z,6.23
2017-10-20T18:24:57.289Z,5.60
2017-10-20T18:27:24.839Z,6.10
2017-10-20T18:29:52.386Z,6.50
2017-10-20T18:32:19.965Z,5.77
2017-10-20T18:34:47.526Z,5.77
2017-10-20T18:37:15.073Z,9.90
2017-10-20T18:39:42.610Z,4.40
2017-10-20T18:42:10.549Z,8.90
2017-10-20T18:44:38.104Z,7.37
2017-10-20T18:47:05.643Z,8.73
2017-10-20T18:49:33.189Z,6.90
2017-10-20T18:52:00.731Z,10.43
2017-10-20T18:54:28.279Z,4.83
2017-10-20T18:56:55.809Z,8.50
2017-10-20T18:59:23.356Z,7.17
2017-10-20T19:01:50.892Z,4.70
2017-10-20T19:04:18.454Z,8.77
2017-10-20T19:06:46.021Z,6.63
2017-10-20T19:09:13.962Z,8.17
2017-10-20T19:11:41.483Z,7.60
2017-10-20T19:14:09.043Z,11.90
2017-10-20T19:16:36.589Z,8.47
2017-10-20T19:19:04.135Z,8.93
2017-10-20T19:21:31.667Z,4.90
2017-10-20T19:23:59.259Z,9.93
2017-10-20T19:26:26.848Z,7.03
2017-10-20T19:28:54.389Z,5.77
2017-10-20T19:31:21.949Z,9.53
2017-10-20T19:33:49.489Z,5.70
2017-10-20T19:36:17.046Z,13.27
2017-10-20T19:38:44.572Z,6.17
2017-10-20T19:41:12.136Z,6.57
2017-10-20T19:43:39.668Z,9.93
2017-10-20T19:46:07.229Z,8.50
2017-10-20T19:48:34.812Z,10.40
2017-10-20T19:51:02.398Z,8.30
2017-10-20T19:53:29.925Z,7.83
2017-10-20T19:55:57.463Z,7.03
2017-10-20T19:58:24.999Z,10.20
2017-10-20T20:00:52.571Z,6.93
2017-10-20T20:03:20.108Z,7.13
2017-10-20T20:05:47.654Z,7.33
2017-10-20T20:08:15.601Z,10.03
2017-10-20T20:10:43.149Z,9.17
2017-10-20T20:13:10.836Z,7.07
2017-10-20T20:15:38.445Z,9.13
2017-10-20T20:18:06.132Z,7.37
2017-10-20T20:20:34.058Z,8.73
2017-10-20T20:23:01.634Z,10.23
2017-10-20T20:25:29.188Z,10.10
2017-10-20T20:27:56.809Z,7.30
2017-10-20T20:30:24.356Z,4.90
2017-10-20T20:33:02.749Z,5.53
2017-10-20T20:35:30.330Z,8.30
2017-10-20T20:37:57.874Z,7.67
2017-10-20T20:40:25.650Z,6.10
2017-10-20T20:42:53.200Z,10.40
2017-10-20T20:45:21.124Z,6.73
2017-10-20T20:47:48.676Z,7.30
2017-10-20T20:50:16.222Z,9.20
2017-10-20T20:52:44.744Z,5.73
2017-10-20T20:55:12.281Z,5.90
2017-10-20T20:57:39.828Z,7.30
2017-10-20T21:00:07.364Z,5.73
2017-10-20T21:02:34.945Z,7.87
2017-10-20T21:05:02.510Z,7.73
2017-10-20T21:07:30.089Z,11.30
2017-10-20T21:09:57.670Z,7.97
2017-10-20T21:12:25.205Z,6.33
2017-10-20T21:14:52.764Z,7.33
2017-10-20T21:17:20.693Z,13.57
2017-10-20T21:19:48.272Z,6.70
2017-10-20T21:22:15.812Z,8.02
2017-10-20T21:24:43.363Z,7.43
2017-10-20T21:27:10.899Z,6.53
2017-10-20T21:29:38.441Z,6.20
2017-10-20T21:32:05.973Z,7.83
2017-10-20T21:34:33.940Z,5.70
2017-10-20T21:37:01.475Z,7.93
2017-10-20T21:39:29.884Z,3.80
2017-10-20T21:41:57.483Z,8.18
2017-10-20T21:44:25.457Z,8.00
2017-10-20T21:46:52.996Z,7.73
2017-10-20T21:49:20.631Z,9.27
2017-10-20T21:51:48.789Z,5.77
2017-10-20T21:54:16.576Z,7.77
2017-10-20T21:56:44.516Z,8.40
2017-10-20T21:59:12.042Z,9.27
2017-10-20T22:01:40.090Z,7.03
2017-10-20T22:04:07.626Z,8.20
2017-10-20T22:06:35.178Z,5.73
2017-10-20T22:09:02.743Z,6.00
2017-10-20T22:11:30.289Z,7.50
2017-10-20T22:13:58.223Z,7.82
2017-10-20T22:16:25.771Z,8.50
2017-10-20T22:18:53.308Z,9.18
2017-10-20T22:21:20.874Z,5.82
2017-10-20T22:23:48.416Z,9.47
2017-10-20T22:26:15.997Z,11.43
2017-10-20T22:28:43.530Z,6.53
2017-10-20T22:31:11.082Z,8.07
2017-10-20T22:33:39.022Z,6.32
2017-10-20T22:36:06.597Z,8.60
2017-10-20T22:38:34.130Z,5.57
2017-10-20T22:41:01.745Z,7.65
2017-10-20T22:43:29.318Z,8.75
2017-10-20T22:45:56.854Z,7.43
2017-10-20T22:48:24.404Z,7.28
2017-10-20T22:50:51.960Z,5.50
2017-10-20T22:53:19.927Z,4.32
2017-10-20T22:55:47.465Z,6.85
2017-10-20T22:58:15.032Z,7.85
2017-10-20T23:00:42.575Z,6.72
2017-10-20T23:03:10.159Z,6.30
2017-10-20T23:05:37.698Z,10.35
2017-10-20T23:08:05.226Z,7.22
2017-10-20T23:10:32.780Z,6.10
2017-10-20T23:13:00.327Z,8.48
2017-10-20T23:15:28.216Z,6.35
2017-10-20T23:17:55.758Z,6.70
2017-10-20T23:20:23.334Z,6.95
2017-10-20T23:22:50.877Z,9.45
2017-10-20T23:25:18.454Z,9.77
2017-10-20T23:27:45.993Z,4.35
2017-10-20T23:30:13.538Z,7.90
2017-10-20T23:32:41.486Z,5.50
2017-10-20T23:35:09.021Z,8.05
2017-10-20T23:37:36.574Z,9.43
2017-10-20T23:40:04.118Z,6.62
2017-10-20T23:42:32.072Z,4.65
2017-10-20T23:44:59.629Z,6.82
2017-10-20T23:47:27.216Z,7.45
2017-10-20T23:49:54.761Z,5.80
2017-10-20T23:52:22.307Z,10.60
2017-10-20T23:54:49.872Z,7.50
2017-10-20T23:57:17.809Z,6.60
2017-10-20T23:59:45.351Z,5.78
